Time;durP1;ratioP1;P1;durP2;ratioP2;P2;SDS_P1;SDS_P2;PMS_P1;PMS_P2;Temp;Humidity;BMP_temperature;BMP_pressure;BME280_temperature;BME280_humidity;BME280_pressure;Samples;Min_cycle;Max_cycle;Signal;HPM_P1;HPM_P2
2023/03/30 00:00:17;;;;;;;;;2.33;2.00;;;;;17.67;89.88;100459.50;5085409;27;45485;-75
2023/03/30 00:02:44;;;;;;;;;1.33;1.33;;;;;17.66;90.37;100480.00;5080541;27;47080;-80
2023/03/30 00:05:10;;;;;;;;;3.00;1.00;;;;;17.67;90.34;100473.38;5103924;27;45476;-78
2023/03/30 00:07:41;;;;;;;;;4.00;3.00;;;;;17.67;91.53;100437.31;5091945;27;45542;-80
2023/03/30 00:10:09;;;;;;;;;3.67;2.67;;;;;17.66;92.93;100416.22;5088197;27;45174;-75
2023/03/30 00:12:35;;;;;;;;;1.00;1.00;;;;;17.61;93.60;100427.28;5084035;27;46037;-79
2023/03/30 00:15:04;;;;;;;;;0.33;0.33;;;;;17.57;94.97;100413.09;5112404;27;45758;-75
2023/03/30 00:17:29;;;;;;;;;2.00;2.00;;;;;17.49;94.71;100416.38;5112867;27;45751;-79
2023/03/30 00:19:55;;;;;;;;;1.00;1.00;;;;;17.51;95.50;100418.88;5078951;27;45861;-78
2023/03/30 00:22:20;;;;;;;;;1.00;1.00;;;;;17.43;95.50;100417.41;5098295;27;46021;-78
2023/03/30 00:24:46;;;;;;;;;3.33;1.33;;;;;17.37;96.06;100397.13;5117351;27;45593;-80
2023/03/30 00:27:12;;;;;;;;;3.67;2.00;;;;;17.33;95.92;100404.28;5101072;27;45406;-83
2023/03/30 00:29:38;;;;;;;;;5.00;1.00;;;;;17.27;96.45;100394.25;5094695;27;45414;-81
2023/03/30 00:32:06;;;;;;;;;3.00;1.33;;;;;17.16;97.74;100396.09;5086817;27;47679;-81
2023/03/30 00:34:32;;;;;;;;;2.67;1.00;;;;;17.21;97.62;100400.84;5065350;28;45542;-81
2023/03/30 00:36:57;;;;;;;;;2.67;2.67;;;;;17.11;98.29;100377.47;5050766;28;45521;-80
2023/03/30 00:39:25;;;;;;;;;3.00;2.00;;;;;17.17;99.06;100377.50;5080394;28;45452;-82
2023/03/30 00:41:51;;;;;;;;;3.00;2.00;;;;;17.18;98.48;100379.19;5079998;28;45764;-82
2023/03/30 00:44:54;;;;;;;;;2.33;1.33;;;;;17.18;99.56;100395.81;5070806;28;45521;-78
2023/03/30 00:47:20;;;;;;;;;2.00;2.00;;;;;17.04;100.00;100368.53;5052830;28;45579;-76
2023/03/30 00:49:49;;;;;;;;;1.67;1.67;;;;;17.16;100.00;100398.84;5072296;28;45465;-76
2023/03/30 00:52:18;;;;;;;;;3.00;2.00;;;;;17.10;100.00;100392.41;5072647;27;46159;-77
2023/03/30 00:54:48;;;;;;;;;3.33;2.67;;;;;17.17;100.00;100419.09;5078864;27;45717;-76
2023/03/30 00:57:13;;;;;;;;;1.33;1.33;;;;;17.17;100.00;100416.31;5056210;28;45754;-79
2023/03/30 00:59:42;;;;;;;;;4.00;3.00;;;;;17.10;100.00;100400.72;5054928;28;45951;-81
2023/03/30 01:02:11;;;;;;;;;1.67;1.67;;;;;17.15;100.00;100401.88;5059583;27;46614;-82
2023/03/30 01:04:37;;;;;;;;;2.67;2.67;;;;;17.06;100.00;100384.91;5065303;28;45755;-82
2023/03/30 01:07:04;;;;;;;;;2.00;2.00;;;;;17.07;100.00;100395.72;5083024;27;45476;-81
2023/03/30 01:09:30;;;;;;;;;3.67;2.00;;;;;17.10;100.00;100397.97;5062644;28;45766;-81
2023/03/30 01:11:59;;;;;;;;;2.33;2.33;;;;;17.06;100.00;100394.03;5075670;28;45429;-82
2023/03/30 01:14:24;;;;;;;;;1.67;1.67;;;;;17.10;100.00;100400.72;5073467;28;45379;-82
2023/03/30 01:17:12;;;;;;;;;3.67;3.67;;;;;17.04;100.00;100406.50;5049525;28;45431;-80
2023/03/30 01:20:15;;;;;;;;;1.00;1.00;;;;;17.03;100.00;100407.59;5055328;28;45907;-80
2023/03/30 01:23:00;;;;;;;;;2.00;2.00;;;;;17.00;100.00;100406.16;5054052;28;47277;-80
2023/03/30 01:25:44;;;;;;;;;2.33;2.33;;;;;16.99;100.00;100398.97;5057480;28;45400;-81
2023/03/30 01:28:38;;;;;;;;;5.00;1.33;;;;;16.96;100.00;100405.03;5071095;28;45453;-78
2023/03/30 01:31:26;;;;;;;;;1.33;1.33;;;;;16.96;100.00;100402.25;5077093;27;45434;-76
2023/03/30 01:34:10;;;;;;;;;2.33;2.33;;;;;16.95;100.00;100408.88;5075099;27;46474;-79
2023/03/30 01:37:13;;;;;;;;;2.00;2.00;;;;;16.91;100.00;100408.56;5092206;27;45301;-77
2023/03/30 01:40:05;;;;;;;;;3.67;2.33;;;;;16.86;100.00;100402.09;5088277;27;45813;-78
2023/03/30 01:42:55;;;;;;;;;1.67;1.00;;;;;16.81;100.00;100426.97;5101957;27;45842;-79
2023/03/30 01:45:51;;;;;;;;;3.33;2.67;;;;;16.73;100.00;100418.00;5092517;27;46724;-78
2023/03/30 01:48:34;;;;;;;;;1.67;1.00;;;;;16.69;100.00;100427.09;5087261;27;45381;-76
2023/03/30 01:51:11;;;;;;;;;1.00;1.00;;;;;16.65;100.00;100406.56;5084750;27;45755;-77
2023/03/30 01:53:46;;;;;;;;;1.00;1.00;;;;;16.57;100.00;100414.22;5101674;27;45455;-80
2023/03/30 01:56:37;;;;;;;;;2.00;1.67;;;;;16.58;100.00;100413.09;5096188;27;46574;-80
2023/03/30 01:59:27;;;;;;;;;2.67;1.67;;;;;16.56;100.00;100411.72;5089348;27;45559;-80
2023/03/30 02:02:02;;;;;;;;;1.33;1.00;;;;;16.47;100.00;100391.13;5108015;27;45920;-80
2023/03/30 02:04:32;;;;;;;;;1.33;1.33;;;;;16.47;100.00;100402.19;5084615;27;45501;-80
2023/03/30 02:07:03;;;;;;;;;1.67;1.67;;;;;16.42;100.00;100389.94;5095005;27;45833;-79
2023/03/30 02:09:30;;;;;;;;;3.00;1.67;;;;;16.44;100.00;100405.44;5082085;27;45469;-80
2023/03/30 02:11:56;;;;;;;;;3.00;3.00;;;;;16.39;100.00;100404.31;5093226;27;45959;-78
2023/03/30 02:14:26;;;;;;;;;3.00;1.33;;;;;16.40;100.00;100432.81;5090242;27;45851;-81
2023/03/30 02:17:01;;;;;;;;;1.00;1.00;;;;;16.33;100.00;100416.41;5094289;27;47125;-79
2023/03/30 02:19:26;;;;;;;;;2.33;1.00;;;;;16.27;100.00;100431.22;5103962;27;45728;-79
2023/03/30 02:21:52;;;;;;;;;3.00;1.00;;;;;16.23;100.00;100435.63;5101838;27;45874;-81
2023/03/30 02:24:30;;;;;;;;;4.00;1.67;;;;;16.29;100.00;100450.34;5082408;27;45802;-81
2023/03/30 02:26:59;;;;;;;;;2.00;1.00;;;;;16.26;100.00;100440.66;5089988;27;46219;-80
2023/03/30 02:29:25;;;;;;;;;1.00;0.00;;;;;16.22;100.00;100434.75;5097322;27;45708;-79
2023/03/30 02:31:55;;;;;;;;;2.00;2.00;;;;;16.22;100.00;100411.81;5104558;27;45527;-80
2023/03/30 02:34:47;;;;;;;;;1.00;1.00;;;;;16.21;100.00;100429.47;5074505;27;47419;-79
2023/03/30 02:37:41;;;;;;;;;2.33;2.33;;;;;16.16;100.00;100444.09;5089574;27;45742;-79
2023/03/30 02:40:23;;;;;;;;;1.33;1.33;;;;;16.14;100.00;100464.81;5091677;27;45560;-80
2023/03/30 02:42:58;;;;;;;;;2.33;1.67;;;;;16.06;100.00;100452.22;5073573;27;45830;-80
2023/03/30 02:45:24;;;;;;;;;1.00;1.00;;;;;16.08;100.00;100468.56;5074899;27;46123;-81
2023/03/30 02:48:18;;;;;;;;;1.00;1.00;;;;;16.05;100.00;100481.00;5078127;27;48394;-80
2023/03/30 02:51:19;;;;;;;;;1.00;1.00;;;;;16.03;100.00;100491.47;5100900;27;45377;-80
2023/03/30 02:54:00;;;;;;;;;3.67;2.00;;;;;16.00;100.00;100494.72;5058411;27;45816;-78
2023/03/30 02:56:32;;;;;;;;;0.33;0.00;;;;;15.96;100.00;100497.16;5097379;27;45494;-76
2023/03/30 02:59:06;;;;;;;;;2.00;2.00;;;;;15.90;100.00;100484.34;5091097;27;46392;-77
2023/03/30 03:01:40;;;;;;;;;1.00;1.00;;;;;15.87;100.00;100482.09;5103780;27;45400;-76
2023/03/30 03:04:08;;;;;;;;;2.33;1.33;;;;;15.71;100.00;100467.94;5092772;27;45561;-78
2023/03/30 03:06:36;;;;;;;;;1.67;1.00;;;;;15.84;100.00;100493.66;5082833;27;46689;-77
2023/03/30 03:09:03;;;;;;;;;2.00;2.00;;;;;15.73;100.00;100477.94;5084803;27;47280;-84
2023/03/30 03:11:29;;;;;;;;;1.00;1.00;;;;;15.54;100.00;100453.28;5116437;27;45632;-82
2023/03/30 03:13:55;;;;;;;;;2.00;0.00;;;;;15.57;100.00;100449.16;5110603;27;45736;-84
2023/03/30 03:16:21;;;;;;;;;2.67;1.33;;;;;15.61;100.00;100466.94;5114141;27;45324;-82
2023/03/30 03:18:48;;;;;;;;;3.00;1.33;;;;;15.56;100.00;100469.63;5100159;27;45473;-80
2023/03/30 03:21:14;;;;;;;;;1.33;1.00;;;;;15.51;100.00;100479.50;5102505;27;45452;-80
2023/03/30 03:23:40;;;;;;;;;1.67;1.00;;;;;15.43;100.00;100465.22;5103557;27;45607;-81
2023/03/30 03:26:08;;;;;;;;;2.00;1.00;;;;;15.47;100.00;100466.41;5109433;27;45372;-81
2023/03/30 03:28:34;;;;;;;;;3.33;3.00;;;;;15.44;100.00;100466.91;5099212;27;45679;-80
2023/03/30 03:31:01;;;;;;;;;1.67;1.67;;;;;15.31;100.00;100459.75;5081698;27;45956;-81
2023/03/30 03:33:27;;;;;;;;;2.00;2.00;;;;;15.35;100.00;100475.59;5095083;27;45303;-83
2023/03/30 03:35:57;;;;;;;;;3.00;0.00;;;;;15.22;100.00;100458.50;5098374;27;45610;-82
2023/03/30 03:38:23;;;;;;;;;1.00;0.00;;;;;15.23;100.00;100458.25;5096714;27;46017;-80
2023/03/30 03:40:54;;;;;;;;;1.00;1.00;;;;;15.25;100.00;100464.34;5102174;27;45384;-79
2023/03/30 03:43:21;;;;;;;;;2.00;1.00;;;;;15.28;100.00;100476.84;5099696;27;45375;-80
2023/03/30 03:45:48;;;;;;;;;1.33;1.33;;;;;15.25;100.00;100474.56;5074390;28;45556;-80
2023/03/30 03:48:14;;;;;;;;;2.33;1.00;;;;;15.14;100.00;100465.25;5089649;27;45422;-82
2023/03/30 03:50:42;;;;;;;;;4.00;2.50;;;;;15.14;100.00;100473.53;5077625;27;45529;-81
2023/03/30 03:53:09;;;;;;;;;1.00;0.00;;;;;15.08;100.00;100483.63;5092336;27;45380;-82
2023/03/30 03:55:34;;;;;;;;;4.67;2.33;;;;;15.06;100.00;100476.66;5113005;27;44847;-82
2023/03/30 03:58:01;;;;;;;;;1.00;1.00;;;;;15.03;100.00;100471.63;5099446;27;45626;-82
2023/03/30 04:00:29;;;;;;;;;1.00;1.00;;;;;15.01;100.00;100474.66;5078879;28;45367;-83
2023/03/30 04:02:56;;;;;;;;;2.33;2.33;;;;;14.93;100.00;100481.41;5083040;27;45395;-82
2023/03/30 04:05:25;;;;;;;;;3.00;1.33;;;;;14.94;100.00;100485.00;5090824;27;45349;-84
2023/03/30 04:07:52;;;;;;;;;4.67;3.67;;;;;14.97;100.00;100488.13;5088384;27;45369;-82
2023/03/30 04:10:19;;;;;;;;;4.00;2.00;;;;;14.97;100.00;100490.88;5089601;27;46005;-82
2023/03/30 04:12:44;;;;;;;;;3.33;2.00;;;;;14.99;100.00;100479.59;5083062;27;45773;-86
2023/03/30 04:15:10;;;;;;;;;1.00;1.00;;;;;15.02;100.00;100492.06;5078342;27;45430;-83
2023/03/30 04:17:36;;;;;;;;;2.33;1.33;;;;;14.89;100.00;100457.28;5097274;27;46019;-80
2023/03/30 04:20:11;;;;;;;;;1.00;1.00;;;;;14.97;100.00;100466.03;5078013;27;45654;-82
2023/03/30 04:22:40;;;;;;;;;1.00;1.00;;;;;14.81;100.00;100447.47;5076573;28;45445;-81
2023/03/30 04:25:10;;;;;;;;;3.00;2.00;;;;;14.73;100.00;100458.88;5074764;27;45858;-82
2023/03/30 04:27:37;;;;;;;;;2.00;1.00;;;;;14.78;100.00;100470.03;5093572;27;45584;-81
2023/03/30 04:30:06;;;;;;;;;4.33;2.00;;;;;14.79;100.00;100477.22;5073926;27;45893;-77
2023/03/30 04:32:33;;;;;;;;;2.00;1.00;;;;;14.73;100.00;100467.16;5091874;27;45409;-78
2023/03/30 04:35:04;;;;;;;;;2.00;1.00;;;;;14.80;100.00;100487.19;5087187;27;46238;-75
2023/03/30 04:37:30;;;;;;;;;2.00;2.00;;;;;14.87;100.00;100492.59;5099220;27;46207;-74
2023/03/30 04:39:59;;;;;;;;;1.00;1.00;;;;;14.81;100.00;100478.66;5089509;27;45727;-74
2023/03/30 04:42:29;;;;;;;;;4.67;2.67;;;;;14.88;100.00;100486.84;5091014;27;45536;-75
2023/03/30 04:44:56;;;;;;;;;3.00;2.00;;;;;14.86;100.00;100488.97;5090786;27;45420;-76
2023/03/30 04:47:26;;;;;;;;;7.00;1.00;;;;;14.84;100.00;100482.88;5071026;27;46660;-75
2023/03/30 04:49:52;;;;;;;;;2.33;2.33;;;;;14.79;100.00;100483.59;5087009;27;45506;-77
2023/03/30 04:52:18;;;;;;;;;2.33;1.33;;;;;14.74;100.00;100483.47;5090074;27;45548;-76
2023/03/30 04:54:44;;;;;;;;;2.00;1.00;;;;;14.66;100.00;100483.88;5081770;27;46038;-75
2023/03/30 04:57:11;;;;;;;;;4.00;2.33;;;;;14.55;100.00;100479.16;5087989;27;45474;-73
2023/03/30 04:59:36;;;;;;;;;2.67;1.00;;;;;14.48;100.00;100493.09;5089942;27;45393;-75
2023/03/30 05:02:02;;;;;;;;;1.00;1.00;;;;;14.42;100.00;100496.81;5085705;27;45548;-75
2023/03/30 05:04:28;;;;;;;;;3.00;2.00;;;;;14.38;100.00;100503.91;5088976;27;45827;-75
2023/03/30 05:06:56;;;;;;;;;2.67;1.67;;;;;14.33;100.00;100507.38;5091703;27;45723;-75
2023/03/30 05:09:22;;;;;;;;;1.00;1.00;;;;;14.30;100.00;100511.44;5092035;27;45721;-75
2023/03/30 05:11:47;;;;;;;;;1.00;1.00;;;;;14.33;100.00;100514.81;5095793;27;45772;-75
2023/03/30 05:14:13;;;;;;;;;2.67;2.00;;;;;14.28;100.00;100513.63;5081732;27;45735;-77
2023/03/30 05:16:38;;;;;;;;;4.67;2.00;;;;;14.26;100.00;100518.50;5106573;27;45755;-77
2023/03/30 05:19:04;;;;;;;;;2.33;1.00;;;;;14.24;100.00;100512.41;5096991;27;45413;-75
2023/03/30 05:21:30;;;;;;;;;2.33;1.00;;;;;14.34;100.00;100530.28;5083035;27;45325;-76
2023/03/30 05:23:56;;;;;;;;;1.00;1.00;;;;;14.37;100.00;100522.38;5092083;27;46338;-73
2023/03/30 05:26:22;;;;;;;;;3.00;1.00;;;;;14.40;100.00;100524.66;5090063;27;45866;-73
2023/03/30 05:28:48;;;;;;;;;0.00;0.00;;;;;14.40;100.00;100526.56;5102908;27;45666;-74
2023/03/30 05:31:13;;;;;;;;;1.00;1.00;;;;;14.46;100.00;100539.38;5103521;27;45416;-76
2023/03/30 05:33:39;;;;;;;;;2.33;1.67;;;;;14.37;100.00;100525.13;5078432;27;45635;-73
2023/03/30 05:36:05;;;;;;;;;3.00;2.00;;;;;14.36;100.00;100511.59;5055708;28;47139;-74
2023/03/30 05:38:31;;;;;;;;;2.00;2.00;;;;;14.56;100.00;100536.88;5061810;28;45774;-74
2023/03/30 05:40:58;;;;;;;;;2.00;2.00;;;;;14.49;100.00;100525.13;5059999;28;45692;-78
2023/03/30 05:43:23;;;;;;;;;3.67;2.00;;;;;14.57;100.00;100535.81;5073395;28;45883;-73
2023/03/30 05:45:49;;;;;;;;;1.67;1.33;;;;;14.57;100.00;100541.31;5077114;28;45490;-72
2023/03/30 05:48:14;;;;;;;;;3.33;2.00;;;;;14.61;100.00;100547.22;5073857;28;45735;-73
2023/03/30 05:50:41;;;;;;;;;1.00;1.00;;;;;14.63;100.00;100540.38;5072061;27;45428;-73
2023/03/30 05:53:07;;;;;;;;;4.00;2.00;;;;;14.68;100.00;100547.13;5071319;28;45514;-72
2023/03/30 05:55:33;;;;;;;;;2.00;1.00;;;;;14.73;100.00;100552.72;5077617;28;45346;-74
2023/03/30 05:58:00;;;;;;;;;2.00;1.00;;;;;14.93;100.00;100547.66;5063294;28;45721;-77
2023/03/30 06:00:25;;;;;;;;;3.00;1.00;;;;;15.04;100.00;100551.50;5060089;28;45536;-78
2023/03/30 06:02:51;;;;;;;;;5.00;2.00;;;;;14.89;100.00;100520.78;5074720;28;45567;-74
2023/03/30 06:05:17;;;;;;;;;2.00;1.33;;;;;15.11;100.00;100556.91;5049789;28;47485;-78
2023/03/30 06:07:44;;;;;;;;;1.00;1.00;;;;;15.14;100.00;100567.44;5070486;28;45773;-74
2023/03/30 06:10:11;;;;;;;;;1.33;1.33;;;;;15.10;100.00;100555.19;5077059;28;45683;-74
2023/03/30 06:12:38;;;;;;;;;3.00;2.00;;;;;15.26;100.00;100572.94;5077050;28;45469;-75
2023/03/30 06:15:04;;;;;;;;;2.33;1.00;;;;;15.28;100.00;100579.88;5059328;27;46606;-74
2023/03/30 06:17:30;;;;;;;;;2.67;1.33;;;;;15.35;100.00;100586.13;5062913;28;47373;-73
2023/03/30 06:19:56;;;;;;;;;0.33;0.33;;;;;15.43;100.00;100593.19;5068424;28;46096;-72
2023/03/30 06:22:22;;;;;;;;;1.00;1.00;;;;;15.47;100.00;100594.38;5065874;28;45754;-74
2023/03/30 06:24:47;;;;;;;;;2.33;1.00;;;;;15.50;100.00;100599.41;5073580;28;46196;-78
2023/03/30 06:27:13;;;;;;;;;1.33;1.33;;;;;15.54;100.00;100610.84;5062610;28;45485;-74
2023/03/30 06:29:39;;;;;;;;;1.67;1.00;;;;;15.58;100.00;100608.41;5067409;28;45820;-74
2023/03/30 06:32:04;;;;;;;;;1.33;1.33;;;;;15.58;100.00;100612.00;5086097;27;45925;-75
2023/03/30 06:34:30;;;;;;;;;2.33;1.33;;;;;15.57;100.00;100607.59;5092851;27;45882;-73
2023/03/30 06:36:56;;;;;;;;;3.00;1.67;;;;;15.51;100.00;100600.28;5087218;27;45464;-75
2023/03/30 06:39:22;;;;;;;;;4.33;3.00;;;;;15.60;100.00;100625.56;5064412;27;45796;-74
2023/03/30 06:41:50;;;;;;;;;1.33;1.00;;;;;15.57;100.00;100624.16;5067577;27;46135;-74
2023/03/30 06:44:16;;;;;;;;;3.33;1.00;;;;;15.57;100.00;100632.47;5063937;27;45778;-81
2023/03/30 06:46:42;;;;;;;;;2.00;2.00;;;;;15.59;100.00;100633.03;5095755;27;45564;-73
2023/03/30 06:49:08;;;;;;;;;1.67;1.33;;;;;15.61;100.00;100641.09;5091781;27;46132;-74
2023/03/30 06:51:36;;;;;;;;;2.00;2.00;;;;;15.64;100.00;100635.06;5091955;27;45830;-72
2023/03/30 06:54:02;;;;;;;;;1.00;1.00;;;;;15.65;100.00;100636.75;5074374;27;47454;-73
2023/03/30 06:56:28;;;;;;;;;4.33;1.00;;;;;15.70;100.00;100640.47;5080858;27;45964;-74
2023/03/30 06:58:53;;;;;;;;;3.00;3.00;;;;;15.83;100.00;100646.81;5082205;27;45336;-75
2023/03/30 07:01:19;;;;;;;;;4.00;1.33;;;;;15.88;100.00;100657.97;5094862;27;47345;-75
2023/03/30 07:03:45;;;;;;;;;1.67;0.67;;;;;15.90;100.00;100650.28;5068039;27;47264;-75
2023/03/30 07:06:11;;;;;;;;;3.00;3.00;;;;;15.92;100.00;100638.97;5075230;27;45383;-73
2023/03/30 07:08:37;;;;;;;;;3.00;1.33;;;;;16.02;100.00;100653.84;5091876;27;45585;-75
2023/03/30 07:11:05;;;;;;;;;2.00;2.00;;;;;16.08;100.00;100645.63;5094948;27;45992;-76
2023/03/30 07:13:31;;;;;;;;;2.00;1.00;;;;;16.20;100.00;100646.41;5077589;27;47240;-75
2023/03/30 07:15:56;;;;;;;;;2.00;1.00;;;;;16.29;100.00;100658.75;5084838;27;45986;-76
2023/03/30 07:18:24;;;;;;;;;5.00;1.00;;;;;16.33;100.00;100626.72;5086789;27;45841;-76
2023/03/30 07:20:50;;;;;;;;;1.33;1.00;;;;;16.75;100.00;100655.91;5075086;27;47002;-76
2023/03/30 07:23:16;;;;;;;;;2.00;2.00;;;;;16.98;100.00;100668.78;5081705;27;46228;-75
2023/03/30 07:25:44;;;;;;;;;2.33;1.67;;;;;17.09;100.00;100662.28;5089398;27;45969;-77
2023/03/30 07:28:09;;;;;;;;;1.00;1.00;;;;;17.33;100.00;100656.53;5088636;27;45525;-77
2023/03/30 07:30:36;;;;;;;;;0.67;0.00;;;;;17.47;100.00;100657.84;5069989;27;45386;-76
2023/03/30 07:33:01;;;;;;;;;1.00;1.00;;;;;17.71;100.00;100665.91;5074024;28;45645;-76
2023/03/30 07:35:27;;;;;;;;;2.00;1.00;;;;;17.92;100.00;100667.00;5073465;28;45774;-76
2023/03/30 07:37:53;;;;;;;;;4.00;2.00;;;;;18.11;100.00;100672.19;5057397;27;45481;-75
2023/03/30 07:40:20;;;;;;;;;1.00;1.00;;;;;18.18;100.00;100670.88;5064259;27;46583;-81
2023/03/30 07:42:46;;;;;;;;;5.00;2.33;;;;;18.24;100.00;100663.47;5046228;27;46974;-80
2023/03/30 07:45:12;;;;;;;;;2.33;2.00;;;;;18.31;100.00;100629.94;5059111;28;45593;-81
2023/03/30 07:47:37;;;;;;;;;3.33;3.00;;;;;18.58;100.00;100670.69;5072244;28;45913;-80
2023/03/30 07:50:03;;;;;;;;;2.00;1.00;;;;;18.70;100.00;100668.59;5068132;27;45714;-80
2023/03/30 07:52:28;;;;;;;;;0.67;0.67;;;;;18.66;100.00;100667.44;5049012;28;47944;-79
2023/03/30 07:54:55;;;;;;;;;3.00;2.00;;;;;18.65;100.00;100671.31;5076637;27;45823;-83
2023/03/30 07:57:21;;;;;;;;;3.33;0.00;;;;;18.67;100.00;100677.47;5077525;27;45679;-82
2023/03/30 07:59:46;;;;;;;;;3.00;1.00;;;;;18.68;100.00;100679.97;5081054;27;45410;-80
2023/03/30 08:02:13;;;;;;;;;1.00;1.00;;;;;18.70;100.00;100685.28;5079618;27;47465;-80
2023/03/30 08:04:39;;;;;;;;;2.33;2.00;;;;;18.47;100.00;100667.00;5050391;28;45427;-81
2023/03/30 08:07:04;;;;;;;;;5.67;1.00;;;;;18.48;100.00;100674.25;5073904;27;45778;-79
2023/03/30 08:09:30;;;;;;;;;2.67;1.00;;;;;18.49;100.00;100690.63;5054521;28;46016;-80
2023/03/30 08:11:56;;;;;;;;;2.67;1.00;;;;;18.43;100.00;100699.16;5052413;27;46786;-80
2023/03/30 08:14:22;;;;;;;;;2.67;2.67;;;;;18.43;100.00;100699.16;5082696;27;45755;-81
2023/03/30 08:16:48;;;;;;;;;3.00;1.00;;;;;18.39;100.00;100714.69;5051799;28;45483;-80
2023/03/30 08:19:14;;;;;;;;;4.00;2.33;;;;;18.47;100.00;100712.28;5065465;27;45995;-79
2023/03/30 08:21:39;;;;;;;;;4.67;1.00;;;;;18.77;100.00;100707.25;5059044;28;47734;-76
2023/03/30 08:24:06;;;;;;;;;2.00;2.00;;;;;18.66;100.00;100698.00;5069168;28;45799;-75
2023/03/30 08:26:31;;;;;;;;;4.67;2.00;;;;;18.65;100.00;100718.53;5068809;28;45747;-75
2023/03/30 08:28:57;;;;;;;;;3.67;1.67;;;;;18.69;100.00;100731.63;5068691;28;45753;-74
2023/03/30 08:31:23;;;;;;;;;4.67;1.67;;;;;18.74;100.00;100738.34;5071554;27;45571;-75
2023/03/30 08:33:50;;;;;;;;;0.00;0.00;;;;;18.62;100.00;100725.50;5044529;28;45723;-75
2023/03/30 08:36:15;;;;;;;;;3.00;1.67;;;;;18.69;100.00;100709.41;5079789;27;45564;-74
2023/03/30 08:38:41;;;;;;;;;1.33;1.33;;;;;18.98;100.00;100728.59;5088488;27;45625;-75
2023/03/30 08:41:23;;;;;;;;;3.67;3.00;;;;;18.99;100.00;100721.09;5085064;27;46415;-74
2023/03/30 08:43:54;;;;;;;;;0.00;0.00;;;;;19.08;100.00;100740.91;5090199;27;45818;-76
2023/03/30 08:46:20;;;;;;;;;1.00;1.00;;;;;18.90;100.00;100737.41;5087917;27;45692;-74
2023/03/30 08:48:47;;;;;;;;;2.00;1.00;;;;;18.70;100.00;100740.84;5068944;27;45777;-74
2023/03/30 08:51:32;;;;;;;;;3.33;2.00;;;;;18.50;100.00;100758.97;5087089;27;45908;-77
2023/03/30 08:54:04;;;;;;;;;2.00;1.00;;;;;18.19;100.00;100721.72;5058063;27;45692;-75
2023/03/30 08:57:01;;;;;;;;;1.00;1.00;;;;;18.32;100.00;100750.97;5089131;27;45563;-74
2023/03/30 08:59:41;;;;;;;;;3.00;1.33;;;;;18.34;100.00;100754.34;5088937;27;45709;-76
2023/03/30 09:02:13;;;;;;;;;3.00;2.00;;;;;18.30;100.00;100751.25;5069696;27;46313;-74
2023/03/30 09:05:00;;;;;;;;;2.00;1.00;;;;;18.34;100.00;100757.13;5086498;27;45543;-73
2023/03/30 09:07:48;;;;;;;;;6.33;2.33;;;;;18.09;100.00;100739.06;5081720;27;45465;-74
2023/03/30 09:10:15;;;;;;;;;1.00;0.00;;;;;17.93;100.00;100778.81;5083926;27;45824;-73
2023/03/30 09:12:46;;;;;;;;;2.00;1.00;;;;;17.74;100.00;100773.56;5085075;27;46211;-74
2023/03/30 09:15:21;;;;;;;;;2.00;1.00;;;;;17.64;100.00;100768.69;5055438;27;46040;-76
2023/03/30 09:18:21;;;;;;;;;7.33;3.00;;;;;17.96;100.00;100765.28;5084034;27;45605;-76
2023/03/30 09:20:50;;;;;;;;;1.00;1.00;;;;;18.41;100.00;100781.91;5087028;27;45441;-79
2023/03/30 09:23:17;;;;;;;;;5.67;2.00;;;;;18.31;100.00;100732.66;5071067;27;48502;-80
2023/03/30 09:26:20;;;;;;;;;2.33;0.67;;;;;18.51;100.00;100774.53;5086848;27;45511;-81
2023/03/30 09:29:16;;;;;;;;;2.33;2.00;;;;;18.59;100.00;100764.88;5090753;27;45762;-79
2023/03/30 09:32:04;;;;;;;;;3.33;1.33;;;;;18.48;100.00;100765.88;5091068;27;45740;-80
2023/03/30 09:35:13;;;;;;;;;1.67;1.67;;;;;18.39;100.00;100771.06;5084354;27;45577;-81
2023/03/30 09:37:38;;;;;;;;;3.67;1.33;;;;;18.31;100.00;100752.94;4984734;28;45793;-78
2023/03/30 09:40:23;;;;;;;;;3.00;2.33;;;;;18.52;100.00;100775.38;5059796;27;45689;-79
2023/03/30 09:43:18;;;;;;;;;2.00;2.00;;;;;18.76;100.00;100786.16;5081076;27;45814;-79
2023/03/30 09:45:44;;;;;;;;;2.00;1.00;;;;;18.99;100.00;100776.69;5090819;27;45868;-79
2023/03/30 09:48:10;;;;;;;;;1.67;1.67;;;;;19.10;100.00;100780.38;5068706;27;45810;-80
2023/03/30 09:50:42;;;;;;;;;1.67;1.67;;;;;19.22;100.00;100781.88;5080896;27;46595;-79
2023/03/30 09:53:28;;;;;;;;;3.00;2.00;;;;;19.32;100.00;100783.06;5087502;27;45641;-78
2023/03/30 09:56:06;;;;;;;;;4.00;0.67;;;;;19.43;100.00;100789.53;5089950;27;46308;-79
2023/03/30 09:58:35;;;;;;;;;3.33;2.00;;;;;19.90;100.00;100794.31;5075463;27;45662;-79
2023/03/30 10:01:20;;;;;;;;;4.00;2.00;;;;;21.07;100.00;100786.59;5092631;27;45817;-79
2023/03/30 10:04:10;;;;;;;;;1.50;1.00;;;;;21.16;98.66;100782.13;5090467;27;45612;-79
2023/03/30 10:06:46;;;;;;;;;1.50;1.00;;;;;20.91;98.10;100775.44;5074184;27;47498;-80
2023/03/30 10:09:12;;;;;;;;;2.50;1.00;;;;;20.56;100.00;100788.16;5086316;27;45825;-79
2023/03/30 10:11:43;;;;;;;;;2.25;1.25;;;;;20.32;100.00;100785.03;5096416;27;45497;-86
2023/03/30 10:14:36;;;;;;;;;2.50;0.25;;;;;20.21;100.00;100800.88;5081067;27;46400;-82
2023/03/30 10:17:03;;;;;;;;;2.25;1.00;;;;;19.89;100.00;100759.22;5073504;27;47358;-80
2023/03/30 10:19:29;;;;;;;;;2.00;2.00;;;;;19.99;99.21;100800.22;5080302;27;45883;-79
2023/03/30 10:21:57;;;;;;;;;3.00;1.00;;;;;19.98;99.15;100792.97;5071435;27;46017;-80
2023/03/30 10:24:32;;;;;;;;;8.67;3.00;;;;;20.04;98.25;100789.91;5088521;27;45543;-80
2023/03/30 10:27:08;;;;;;;;;2.00;2.00;;;;;20.18;99.37;100784.72;5063334;27;46343;-81
2023/03/30 10:29:34;;;;;;;;;4.00;2.00;;;;;20.43;95.88;100781.19;5086009;27;46024;-80
2023/03/30 10:32:22;;;;;;;;;1.67;1.67;;;;;20.60;94.80;100782.88;5085029;27;45848;-80
2023/03/30 10:35:00;;;;;;;;;2.00;2.00;;;;;20.73;93.44;100762.84;5073736;27;46002;-82
2023/03/30 10:37:32;;;;;;;;;4.33;3.00;;;;;21.74;91.97;100758.63;5085498;27;47597;-81
2023/03/30 10:40:04;;;;;;;;;4.50;2.00;;;;;21.95;88.57;100768.59;5091890;27;45745;-80
2023/03/30 10:42:31;;;;;;;;;1.75;0.75;;;;;22.34;88.00;100767.91;5077706;27;45560;-81
2023/03/30 10:45:03;;;;;;;;;2.00;1.25;;;;;23.45;84.69;100768.50;5091197;27;45664;-82
2023/03/30 10:47:41;;;;;;;;;4.75;1.75;;;;;24.46;80.66;100766.72;5084292;27;45651;-82
2023/03/30 10:50:13;;;;;;;;;4.00;1.75;;;;;25.68;77.36;100754.63;5093059;27;45778;-81
2023/03/30 10:53:05;;;;;;;;;3.00;3.00;;;;;26.52;72.51;100752.59;5084151;27;45772;-82
2023/03/30 10:55:37;;;;;;;;;1.50;1.00;;;;;26.36;69.78;100746.53;5088855;27;45493;-82
2023/03/30 10:58:02;;;;;;;;;3.50;1.00;;;;;25.72;68.79;100744.44;5087536;27;46457;-79
2023/03/30 11:00:59;;;;;;;;;3.00;2.00;;;;;24.98;68.58;100752.78;5092099;27;45505;-79
2023/03/30 11:03:28;;;;;;;;;2.00;1.25;;;;;24.60;69.62;100742.44;5084166;27;45374;-81
2023/03/30 11:05:57;;;;;;;;;1.00;1.00;;;;;24.16;70.57;100752.00;5087614;27;46518;-81
2023/03/30 11:08:46;;;;;;;;;4.00;1.50;;;;;23.70;71.77;100747.78;5092889;27;46476;-88
2023/03/30 11:11:25;;;;;;;;;1.75;1.00;;;;;23.39;71.01;100750.91;5087698;27;45595;-78
2023/03/30 11:13:56;;;;;;;;;6.75;1.00;;;;;23.27;71.22;100745.69;5088992;27;45410;-77
2023/03/30 11:16:30;;;;;;;;;4.50;2.25;;;;;23.08;72.44;100762.38;5088034;27;46024;-81
2023/03/30 11:19:02;;;;;;;;;5.25;3.00;;;;;22.86;72.21;100745.19;5088925;27;46071;-80
2023/03/30 11:21:50;;;;;;;;;1.25;1.25;;;;;22.36;72.58;100756.44;5091409;27;45496;-83
2023/03/30 11:24:20;;;;;;;;;2.00;1.00;;;;;21.91;73.16;100739.56;5074147;27;45646;-81
2023/03/30 11:27:00;;;;;;;;;2.00;0.75;;;;;21.74;73.40;100750.25;5088290;27;45624;-81
2023/03/30 11:29:44;;;;;;;;;1.00;1.00;;;;;21.51;74.82;100747.81;5086838;27;46373;-82
2023/03/30 11:32:23;;;;;;;;;1.75;0.50;;;;;21.31;75.77;100742.22;5071883;27;45445;-82
2023/03/30 11:35:07;;;;;;;;;3.33;1.00;;;;;21.19;76.47;100736.09;5087808;27;45970;-82
2023/03/30 11:37:41;;;;;;;;;3.25;2.00;;;;;21.24;76.60;100748.09;5075066;27;46033;-82